createdAt,value
2022-10-19T00:04:37.619Z,80.83
2022-10-19T00:09:45.114Z,80.92
2022-10-19T00:14:49.073Z,80.89
2022-10-19T00:19:56.043Z,80.55
2022-10-19T00:25:00.106Z,81.12
2022-10-19T00:30:05.132Z,80.93
2022-10-19T00:35:09.877Z,80.61
2022-10-19T00:40:14.179Z,80.68
2022-10-19T00:45:18.306Z,80.42
2022-10-19T00:50:21.877Z,80.34
2022-10-19T00:55:27.200Z,80.27
2022-10-19T01:00:31.615Z,80.22
2022-10-19T01:05:36.035Z,80.04
2022-10-19T01:10:51.938Z,80.07
2022-10-19T01:16:11.574Z,80.11
2022-10-19T01:21:33.156Z,80.18
2022-10-19T01:26:59.557Z,80.34
2022-10-19T01:32:11.410Z,80.64
2022-10-19T01:37:25.658Z,80.71
2022-10-19T01:42:39.805Z,80.73
2022-10-19T01:48:10.868Z,80.94
2022-10-19T01:53:18.588Z,81.38
2022-10-19T01:58:28.486Z,81.26
2022-10-19T02:03:34.861Z,81.32
2022-10-19T02:08:45.742Z,81.19
2022-10-19T02:13:57.445Z,81.33
2022-10-19T02:19:03.644Z,81.36
2022-10-19T02:24:08.708Z,81.37
2022-10-19T02:29:14.968Z,81.44
2022-10-19T02:34:19.637Z,81.22
2022-10-19T02:39:24.806Z,81.53
2022-10-19T02:44:38.488Z,81.45
2022-10-19T02:49:44.149Z,81.47
2022-10-19T02:54:49.050Z,81.48
2022-10-19T02:59:53.187Z,81.59
2022-10-19T03:04:56.755Z,81.54
2022-10-19T03:10:01.548Z,81.82
2022-10-19T03:15:06.333Z,81.70
2022-10-19T03:20:12.141Z,81.98
2022-10-19T03:25:16.799Z,81.60
2022-10-19T03:30:20.247Z,81.90
2022-10-19T03:35:25.064Z,82.15
2022-10-19T03:40:29.336Z,82.28
2022-10-19T03:45:33.126Z,82.21
2022-10-19T03:50:36.864Z,82.06
2022-10-19T03:55:41.431Z,82.04
2022-10-19T04:00:45.915Z,82.21
2022-10-19T04:05:49.303Z,82.18
2022-10-19T04:10:53.733Z,82.07
2022-10-19T04:15:58.208Z,82.11
2022-10-19T04:21:05.514Z,82.28
2022-10-19T04:26:10.644Z,82.30
2022-10-19T04:31:14.815Z,82.20
2022-10-19T04:36:18.239Z,82.09
2022-10-19T04:41:22.770Z,82.06
2022-10-19T04:46:27.403Z,81.80
2022-10-19T04:51:31.003Z,82.01
2022-10-19T04:56:35.027Z,81.95
2022-10-19T05:01:40.409Z,82.13
2022-10-19T05:06:45.833Z,82.16
2022-10-19T05:11:53.374Z,82.39
2022-10-19T05:17:01.586Z,82.33
2022-10-19T05:22:06.399Z,82.29
2022-10-19T05:27:10.336Z,82.36
2022-10-19T05:32:13.802Z,82.45
2022-10-19T05:37:18.161Z,82.41
2022-10-19T05:42:22.239Z,82.37
2022-10-19T05:47:30.189Z,82.12
2022-10-19T05:52:35.963Z,82.24
2022-10-19T05:57:39.833Z,82.08
2022-10-19T06:02:43.635Z,82.36
2022-10-19T06:07:47.089Z,82.20
2022-10-19T06:12:50.520Z,82.25
2022-10-19T06:17:55.269Z,82.07
2022-10-19T06:23:01.356Z,82.29
2022-10-19T06:28:06.247Z,82.23
2022-10-19T06:33:10.487Z,81.78
2022-10-19T06:38:15.318Z,81.95
2022-10-19T06:43:19.815Z,81.83
2022-10-19T06:48:25.065Z,81.63
2022-10-19T06:53:30.156Z,81.60
2022-10-19T06:58:41.368Z,81.78
2022-10-19T07:03:46.513Z,81.31
2022-10-19T07:08:50.317Z,81.17
2022-10-19T07:13:54.884Z,81.11
2022-10-19T07:19:01.690Z,80.95
2022-10-19T07:24:06.368Z,81.02
2022-10-19T07:29:10.209Z,80.91
2022-10-19T07:34:15.324Z,80.58
2022-10-19T07:39:19.869Z,80.55
2022-10-19T07:44:24.931Z,80.32
2022-10-19T07:49:29.733Z,79.91
2022-10-19T07:54:34.709Z,79.44
2022-10-19T07:59:39.209Z,79.29
2022-10-19T08:05:03.959Z,78.50
2022-10-19T08:10:09.959Z,78.00
2022-10-19T08:15:13.956Z,77.51
2022-10-19T08:20:17.874Z,77.78
2022-10-19T08:25:22.903Z,77.74
2022-10-19T08:30:27.850Z,77.68
2022-10-19T08:35:31.883Z,77.24
2022-10-19T08:40:35.913Z,76.64
2022-10-19T08:50:47.841Z,76.17
2022-10-19T08:56:49.463Z,76.28
2022-10-19T09:02:11.746Z,76.11
2022-10-19T09:07:32.211Z,75.88
2022-10-19T09:12:50.616Z,75.85
2022-10-19T09:17:57.774Z,76.38
2022-10-19T09:23:13.516Z,76.05
2022-10-19T09:28:42.971Z,76.49
2022-10-19T09:33:56.381Z,77.08
2022-10-19T09:39:00.870Z,76.87
2022-10-19T09:44:05.859Z,76.90
2022-10-19T09:49:10.786Z,76.84
2022-10-19T09:54:34.802Z,76.95
2022-10-19T09:59:39.660Z,77.48
2022-10-19T10:04:48.492Z,77.55
2022-10-19T10:09:53.766Z,77.75
2022-10-19T10:14:58.566Z,77.62
2022-10-19T10:20:06.654Z,77.80
2022-10-19T10:25:19.613Z,77.28
2022-10-19T10:30:24.696Z,77.55
2022-10-19T10:35:38.007Z,76.94
2022-10-19T10:40:50.532Z,76.70
2022-10-19T10:45:55.373Z,76.76
2022-10-19T10:51:01.234Z,76.20
2022-10-19T10:56:19.640Z,76.59
2022-10-19T11:01:28.267Z,76.40
2022-10-19T11:06:34.674Z,76.42
2022-10-19T11:11:43.599Z,76.72
2022-10-19T11:16:51.710Z,76.77
2022-10-19T11:22:20.335Z,76.72
2022-10-19T11:27:48.669Z,76.63
2022-10-19T11:33:05.537Z,76.73
2022-10-19T11:38:29.917Z,76.57
2022-10-19T11:43:42.429Z,76.46
2022-10-19T11:49:13.418Z,76.30
2022-10-19T11:54:46.262Z,76.22
2022-10-19T12:00:15.395Z,76.34
2022-10-19T12:06:05.719Z,76.18
2022-10-19T12:11:36.586Z,76.34
2022-10-19T12:16:50.992Z,76.12
2022-10-19T12:21:59.862Z,76.04
2022-10-19T12:27:05.532Z,75.84
2022-10-19T12:32:15.962Z,75.29
2022-10-19T12:37:26.533Z,75.03
2022-10-19T12:42:38.037Z,74.55
2022-10-19T12:48:13.663Z,74.15
2022-10-19T12:58:38.055Z,73.42
2022-10-19T13:03:46.000Z,73.37
2022-10-19T13:09:04.284Z,73.10
2022-10-19T13:14:20.310Z,72.92
2022-10-19T13:19:25.247Z,72.84
2022-10-19T13:24:34.147Z,72.56
2022-10-19T13:29:42.554Z,71.43
2022-10-19T13:34:48.012Z,70.61
2022-10-19T13:39:52.156Z,70.01
2022-10-19T13:44:56.946Z,69.90
2022-10-19T13:50:17.836Z,70.29
2022-10-19T13:55:28.471Z,70.54
2022-10-19T14:00:58.585Z,70.57
2022-10-19T14:06:29.019Z,70.83
2022-10-19T14:11:36.855Z,70.56
2022-10-19T14:16:50.303Z,70.39
2022-10-19T14:22:33.613Z,70.11
2022-10-19T14:27:37.314Z,69.83
2022-10-19T14:37:49.616Z,69.70
2022-10-19T14:42:53.176Z,69.82
2022-10-19T14:48:03.558Z,70.18
2022-10-19T14:53:09.702Z,69.83
2022-10-19T14:58:18.591Z,69.86
2022-10-19T15:03:27.479Z,69.75
2022-10-19T15:08:37.690Z,69.97
2022-10-19T15:13:42.828Z,70.38
2022-10-19T15:18:50.108Z,70.48
2022-10-19T15:23:54.884Z,70.17
2022-10-19T15:29:09.976Z,69.66
2022-10-19T15:34:26.374Z,69.82
2022-10-19T15:39:42.117Z,69.56
2022-10-19T15:44:48.451Z,69.47
2022-10-19T15:50:02.836Z,69.65
2022-10-19T15:55:06.613Z,69.61
2022-10-19T16:00:17.015Z,69.73
2022-10-19T16:05:22.032Z,69.65
2022-10-19T16:10:27.860Z,69.57
2022-10-19T16:15:31.109Z,69.67
2022-10-19T16:20:38.176Z,69.64
2022-10-19T16:25:41.820Z,69.59
2022-10-19T16:30:51.653Z,69.91
2022-10-19T16:35:54.887Z,69.84
2022-10-19T16:41:09.775Z,69.82
2022-10-19T16:46:13.597Z,69.73
2022-10-19T16:51:34.353Z,69.87
2022-10-19T16:56:45.222Z,69.99
2022-10-19T17:01:49.068Z,69.71
2022-10-19T17:06:53.891Z,69.62
2022-10-19T17:11:59.027Z,69.82
2022-10-19T17:17:03.909Z,69.47
2022-10-19T17:22:07.989Z,69.50
2022-10-19T17:27:11.677Z,69.46
2022-10-19T17:32:20.684Z,69.60
2022-10-19T17:37:30.329Z,69.89
2022-10-19T17:42:37.117Z,69.46
2022-10-19T17:47:41.694Z,69.73
2022-10-19T17:52:49.768Z,69.79
2022-10-19T17:57:54.414Z,69.84
2022-10-19T18:02:58.183Z,70.37
2022-10-19T18:08:03.335Z,70.14
2022-10-19T18:13:09.838Z,70.12
2022-10-19T18:18:13.492Z,69.95
2022-10-19T18:23:20.820Z,69.89
2022-10-19T18:28:24.928Z,70.17
2022-10-19T18:33:32.416Z,70.51
2022-10-19T18:38:39.261Z,70.69
2022-10-19T18:43:54.855Z,70.34
2022-10-19T18:49:01.052Z,70.77
2022-10-19T18:54:05.762Z,70.82
2022-10-19T18:59:09.701Z,71.18
2022-10-19T19:04:13.412Z,71.30
2022-10-19T19:09:17.698Z,71.86
2022-10-19T19:14:24.550Z,71.52
2022-10-19T19:19:29.713Z,71.33
2022-10-19T19:24:33.383Z,71.70
2022-10-19T19:29:37.249Z,71.67
2022-10-19T19:34:41.186Z,72.18
2022-10-19T19:39:45.640Z,72.38
2022-10-19T19:44:50.224Z,72.96
2022-10-19T19:49:54.031Z,73.04
2022-10-19T19:54:58.437Z,73.52
2022-10-19T20:00:02.693Z,72.91
2022-10-19T20:05:08.431Z,72.76
2022-10-19T20:10:11.955Z,72.77
2022-10-19T20:15:18.511Z,72.97
2022-10-19T20:20:23.361Z,72.98
2022-10-19T20:25:27.822Z,73.04
2022-10-19T20:30:31.460Z,73.63
2022-10-19T20:35:38.161Z,73.62
2022-10-19T20:40:42.495Z,73.19
2022-10-19T20:45:47.119Z,73.08
2022-10-19T20:50:51.692Z,73.52
2022-10-19T20:55:55.300Z,74.22
2022-10-19T21:01:05.355Z,74.33
2022-10-19T21:06:09.775Z,74.05
2022-10-19T21:11:20.993Z,73.91
2022-10-19T21:16:30.654Z,73.92
2022-10-19T21:21:36.856Z,74.38
2022-10-19T21:26:40.559Z,74.17
2022-10-19T21:31:48.767Z,74.09
2022-10-19T21:36:53.573Z,74.33
2022-10-19T21:41:57.809Z,74.52
2022-10-19T21:47:01.665Z,74.51
2022-10-19T21:52:05.268Z,74.64
2022-10-19T21:57:09.009Z,74.55
2022-10-19T22:02:12.347Z,74.58
2022-10-19T22:07:18.693Z,75.08
2022-10-19T22:12:25.832Z,74.99
2022-10-19T22:17:30.341Z,75.02
2022-10-19T22:22:34.634Z,74.66
2022-10-19T22:27:38.882Z,75.28
2022-10-19T22:32:42.081Z,75.22
2022-10-19T22:37:45.287Z,75.53
2022-10-19T22:42:49.075Z,75.62
2022-10-19T22:47:54.216Z,75.65
2022-10-19T22:52:58.732Z,75.88
2022-10-19T22:58:03.137Z,75.65
2022-10-19T23:03:07.245Z,76.12
2022-10-19T23:08:10.401Z,75.90
2022-10-19T23:13:16.014Z,75.94
2022-10-19T23:18:20.369Z,75.98
2022-10-19T23:23:24.803Z,76.02
2022-10-19T23:28:30.642Z,75.93
2022-10-19T23:33:35.575Z,76.00
2022-10-19T23:38:40.240Z,76.22
2022-10-19T23:43:44.618Z,76.56
2022-10-19T23:48:48.979Z,76.23
2022-10-19T23:53:53.911Z,76.48
2022-10-19T23:58:58.410Z,76.25
